Time;durP1;ratioP1;P1;durP2;ratioP2;P2;SDS_P1;SDS_P2;PMS_P1;PMS_P2;Temp;Humidity;BMP_temperature;BMP_pressure;BME280_temperature;BME280_humidity;BME280_pressure;Samples;Min_cycle;Max_cycle;Signal;HPM_P1;HPM_P2
2023/03/13 00:01:19;;;;;;;30.30;4.70;;;6.30;99.90;;;;;;5080051;28;20097;-65
2023/03/13 00:03:45;;;;;;;29.52;5.90;;;6.30;99.90;;;;;;5082661;28;20427;-65
2023/03/13 00:06:11;;;;;;;23.70;4.38;;;6.30;99.90;;;;;;5045682;28;20115;-65
2023/03/13 00:08:37;;;;;;;27.02;4.75;;;6.30;99.90;;;;;;4999179;28;20057;-66
2023/03/13 00:11:04;;;;;;;26.55;5.35;;;6.30;99.90;;;;;;5069681;28;20050;-65
2023/03/13 00:13:30;;;;;;;30.85;4.90;;;6.40;99.90;;;;;;4999204;28;20038;-65
2023/03/13 00:16:07;;;;;;;27.45;4.95;;;6.40;99.90;;;;;;5001358;28;20076;-67
2023/03/13 00:18:33;;;;;;;24.48;4.13;;;6.50;99.90;;;;;;4994988;28;20085;-66
2023/03/13 00:21:05;;;;;;;33.17;5.18;;;6.50;99.90;;;;;;4988602;28;20073;-65
2023/03/13 00:23:32;;;;;;;28.02;4.53;;;6.50;99.90;;;;;;4986534;28;20134;-67
2023/03/13 00:26:04;;;;;;;39.85;4.95;;;6.60;99.90;;;;;;5058356;28;20043;-65
2023/03/13 00:28:32;;;;;;;29.45;6.07;;;6.60;99.90;;;;;;4987571;28;20046;-66
2023/03/13 00:31:05;;;;;;;28.27;4.97;;;6.60;99.90;;;;;;4990370;28;20609;-66
2023/03/13 00:33:32;;;;;;;26.63;5.00;;;6.70;99.90;;;;;;4994160;28;20551;-67
2023/03/13 00:35:59;;;;;;;23.77;3.72;;;6.70;99.90;;;;;;4988977;28;20074;-66
2023/03/13 00:38:26;;;;;;;34.83;6.00;;;6.70;99.90;;;;;;4986060;28;20411;-65
2023/03/13 00:41:16;;;;;;;26.30;4.18;;;6.70;99.90;;;;;;4985334;28;20134;-66
2023/03/13 00:43:43;;;;;;;29.58;5.15;;;6.70;99.90;;;;;;4986258;28;20582;-65
2023/03/13 00:46:11;;;;;;;32.85;5.38;;;6.70;99.90;;;;;;4987912;28;20069;-65
2023/03/13 00:48:36;;;;;;;35.20;6.63;;;6.80;99.90;;;;;;4985788;28;20112;-66
2023/03/13 00:51:03;;;;;;;27.63;4.22;;;6.80;99.90;;;;;;5061297;28;20042;-65
2023/03/13 00:53:29;;;;;;;29.58;4.68;;;6.80;99.90;;;;;;4989429;28;20054;-65
2023/03/13 00:56:00;;;;;;;27.75;5.90;;;6.90;99.90;;;;;;4989930;28;20498;-66
2023/03/13 00:58:27;;;;;;;23.35;4.65;;;6.90;99.90;;;;;;4985996;28;20120;-65
2023/03/13 01:00:53;;;;;;;27.67;4.78;;;6.90;99.90;;;;;;4984921;28;20052;-66
2023/03/13 01:03:20;;;;;;;34.13;5.28;;;6.90;99.90;;;;;;4999187;28;20524;-65
2023/03/13 01:05:58;;;;;;;34.30;6.72;;;6.90;99.90;;;;;;4987974;28;20050;-65
2023/03/13 01:08:23;;;;;;;22.60;4.43;;;6.90;99.90;;;;;;4982741;28;20565;-66
2023/03/13 01:10:49;;;;;;;30.65;4.72;;;6.90;99.90;;;;;;4987800;28;20042;-65
2023/03/13 01:13:15;;;;;;;27.23;5.03;;;6.90;99.90;;;;;;4985677;28;20034;-66
2023/03/13 01:15:41;;;;;;;30.55;4.15;;;6.90;99.90;;;;;;4986895;28;20072;-67
2023/03/13 01:18:06;;;;;;;;;;;6.90;99.90;;;;;;4986738;28;20088;-67
2023/03/13 01:20:32;;;;;;;34.85;5.07;;;7.00;99.90;;;;;;4987542;28;19964;-66
2023/03/13 01:22:57;;;;;;;26.77;4.63;;;7.00;99.90;;;;;;4985600;28;20758;-66
2023/03/13 01:25:23;;;;;;;;;;;7.00;99.90;;;;;;4987319;28;20046;-66
2023/03/13 01:27:49;;;;;;;31.40;5.05;;;6.90;99.90;;;;;;4985770;28;19921;-67
2023/03/13 01:30:14;;;;;;;;;;;7.00;99.90;;;;;;4986099;28;20445;-66
2023/03/13 01:32:40;;;;;;;29.55;4.63;;;7.00;99.90;;;;;;5002123;28;19964;-65
2023/03/13 01:35:06;;;;;;;34.13;4.85;;;7.10;99.90;;;;;;4985798;28;20038;-66
2023/03/13 01:37:32;;;;;;;22.48;4.15;;;7.10;99.90;;;;;;4987007;28;20103;-66
2023/03/13 01:39:58;;;;;;;28.92;4.43;;;7.20;99.90;;;;;;4986034;28;20048;-67
2023/03/13 01:42:23;;;;;;;19.73;4.15;;;7.20;99.90;;;;;;4997384;28;20049;-66
2023/03/13 01:44:53;;;;;;;;;;;7.20;99.90;;;;;;4985743;28;20062;-65
2023/03/13 01:47:18;;;;;;;29.42;4.80;;;7.20;99.90;;;;;;4979336;28;19921;-66
2023/03/13 01:49:45;;;;;;;38.80;4.95;;;7.20;99.90;;;;;;4986085;28;20045;-66
2023/03/13 01:52:27;;;;;;;26.15;3.92;;;7.20;99.90;;;;;;4986231;28;20053;-65
2023/03/13 01:55:08;;;;;;;28.15;4.88;;;7.20;99.90;;;;;;4986320;28;20559;-66
2023/03/13 01:57:39;;;;;;;27.38;4.35;;;7.20;99.90;;;;;;4995648;28;20592;-67
2023/03/13 02:00:15;;;;;;;29.70;5.28;;;7.20;99.90;;;;;;4995806;28;20098;-66
2023/03/13 02:02:45;;;;;;;34.90;5.43;;;7.20;99.90;;;;;;5001696;28;20045;-65
2023/03/13 02:05:12;;;;;;;25.73;5.90;;;7.20;99.90;;;;;;4996837;28;20512;-65
2023/03/13 02:07:42;;;;;;;36.72;5.35;;;7.20;99.90;;;;;;4992052;28;20121;-66
2023/03/13 02:10:09;;;;;;;22.63;4.63;;;7.20;99.90;;;;;;5000451;28;20143;-66
2023/03/13 02:12:38;;;;;;;31.95;6.15;;;7.20;99.90;;;;;;4996090;28;20046;-65
2023/03/13 02:15:16;;;;;;;20.35;4.00;;;7.20;99.90;;;;;;4997398;28;20451;-66
2023/03/13 02:17:43;;;;;;;28.73;4.50;;;7.20;99.90;;;;;;4997786;28;20506;-66
2023/03/13 02:20:10;;;;;;;28.95;4.88;;;7.20;99.90;;;;;;5000883;28;20105;-67
2023/03/13 02:23:03;;;;;;;26.65;4.93;;;7.20;99.90;;;;;;4995122;28;20046;-66
2023/03/13 02:25:48;;;;;;;24.50;4.70;;;7.20;99.90;;;;;;4986922;28;20121;-66
2023/03/13 02:28:16;;;;;;;28.40;5.20;;;7.20;99.90;;;;;;4995654;28;20068;-65
2023/03/13 02:30:43;;;;;;;32.88;6.38;;;7.20;99.90;;;;;;5067938;28;20126;-66
2023/03/13 02:33:12;;;;;;;27.35;5.28;;;7.20;99.90;;;;;;5007090;28;20038;-65
2023/03/13 02:35:37;;;;;;;27.45;4.85;;;7.10;99.90;;;;;;5002754;28;20045;-66
2023/03/13 02:38:07;;;;;;;33.90;4.55;;;7.10;99.90;;;;;;4987826;28;20138;-64
2023/03/13 02:40:36;;;;;;;27.60;5.43;;;7.20;99.90;;;;;;5002003;28;20084;-65
2023/03/13 02:43:07;;;;;;;23.08;4.75;;;7.20;99.90;;;;;;4992124;28;20494;-66
2023/03/13 02:45:33;;;;;;;38.15;6.10;;;7.20;99.90;;;;;;5000683;28;20474;-66
2023/03/13 02:47:58;;;;;;;28.25;5.35;;;7.20;99.90;;;;;;4988666;28;20072;-65
2023/03/13 02:50:24;;;;;;;;;;;7.20;99.90;;;;;;5002706;28;20045;-65
2023/03/13 02:52:57;;;;;;;25.65;4.38;;;7.20;99.90;;;;;;4990358;28;19971;-65
2023/03/13 02:55:43;;;;;;;13.35;3.10;;;7.10;99.90;;;;;;4992327;28;20046;-66
2023/03/13 02:58:08;;;;;;;14.15;3.00;;;7.10;99.90;;;;;;4988875;28;20043;-64
2023/03/13 03:00:34;;;;;;;17.08;2.88;;;7.10;99.90;;;;;;5001973;28;20392;-65
2023/03/13 03:03:00;;;;;;;16.92;3.33;;;7.10;99.90;;;;;;5005721;28;21531;-65
2023/03/13 03:05:25;;;;;;;;;;;7.10;99.90;;;;;;4997523;28;20045;-65
2023/03/13 03:07:51;;;;;;;12.95;2.53;;;7.20;99.90;;;;;;4988938;28;20443;-65
2023/03/13 03:10:17;;;;;;;12.40;2.80;;;7.20;99.90;;;;;;5001527;28;20065;-66
2023/03/13 03:12:43;;;;;;;18.67;3.72;;;7.20;99.90;;;;;;4993675;28;20121;-65
2023/03/13 03:15:09;;;;;;;12.55;2.30;;;7.30;99.90;;;;;;4999258;28;20121;-66
2023/03/13 03:17:35;;;;;;;9.38;2.28;;;7.30;99.90;;;;;;4995480;28;20202;-66
2023/03/13 03:20:01;;;;;;;13.15;1.92;;;7.30;99.90;;;;;;4993428;28;20046;-65
2023/03/13 03:22:27;;;;;;;8.15;2.15;;;7.30;99.90;;;;;;4996399;28;20041;-66
2023/03/13 03:24:52;;;;;;;;;;;7.30;99.90;;;;;;4997268;28;20528;-66
2023/03/13 03:27:18;;;;;;;8.85;1.67;;;7.30;99.90;;;;;;4996823;28;19921;-65
2023/03/13 03:29:43;;;;;;;8.13;1.75;;;7.30;99.90;;;;;;4996837;28;20054;-64
2023/03/13 03:32:09;;;;;;;;;;;7.30;99.90;;;;;;4994275;28;20083;-66
2023/03/13 03:34:34;;;;;;;7.65;1.88;;;7.30;99.90;;;;;;4996014;28;19929;-67
2023/03/13 03:37:00;;;;;;;;;;;7.30;99.90;;;;;;4999761;28;20680;-66
2023/03/13 03:39:25;;;;;;;7.20;1.00;;;7.20;99.90;;;;;;5061878;28;19917;-65
2023/03/13 03:41:51;;;;;;;2.45;0.82;;;7.20;99.90;;;;;;4997149;28;20546;-66
2023/03/13 03:44:16;;;;;;;5.25;1.02;;;7.20;99.90;;;;;;4995232;28;20129;-65
2023/03/13 03:46:42;;;;;;;;;;;7.20;99.90;;;;;;5001250;28;20045;-65
2023/03/13 03:49:07;;;;;;;2.47;0.60;;;7.20;99.90;;;;;;4987792;28;20059;-65
2023/03/13 03:51:33;;;;;;;5.47;0.95;;;7.20;99.90;;;;;;4999125;28;20042;-65
2023/03/13 03:53:59;;;;;;;3.17;0.70;;;7.20;99.90;;;;;;4991974;28;20057;-65
2023/03/13 03:56:24;;;;;;;;;;;7.20;99.90;;;;;;5001135;28;20053;-64
2023/03/13 03:58:50;;;;;;;2.15;0.40;;;7.20;99.90;;;;;;5078061;28;19967;-64
2023/03/13 04:01:15;;;;;;;0.73;0.43;;;7.30;99.90;;;;;;4994981;28;20050;-65
2023/03/13 04:03:41;;;;;;;;;;;7.30;99.90;;;;;;4993181;28;20064;-65
2023/03/13 04:06:08;;;;;;;0.85;0.40;;;7.30;99.90;;;;;;5000324;28;19925;-64
2023/03/13 04:08:33;;;;;;;2.38;0.57;;;7.30;99.90;;;;;;4990558;28;20042;-64
2023/03/13 04:11:00;;;;;;;2.58;0.57;;;7.40;99.90;;;;;;5004755;28;20521;-64
2023/03/13 04:13:26;;;;;;;2.25;0.40;;;7.40;99.90;;;;;;4989465;28;20046;-67
2023/03/13 04:15:51;;;;;;;3.33;0.60;;;7.40;99.90;;;;;;4993853;28;20066;-64
2023/03/13 04:18:17;;;;;;;2.83;0.80;;;7.40;99.90;;;;;;4988555;28;20122;-67
2023/03/13 04:20:43;;;;;;;;;;;7.40;99.90;;;;;;5066752;28;20042;-67
2023/03/13 04:23:08;;;;;;;1.77;0.40;;;7.50;99.90;;;;;;4997708;28;19929;-65
2023/03/13 04:25:34;;;;;;;1.83;0.50;;;7.50;99.90;;;;;;4994666;28;20123;-65
2023/03/13 04:28:00;;;;;;;2.50;0.88;;;7.50;99.90;;;;;;4993951;28;20774;-66
2023/03/13 04:30:26;;;;;;;1.42;0.57;;;7.50;99.90;;;;;;5001362;28;20048;-65
2023/03/13 04:32:52;;;;;;;0.98;0.55;;;7.50;99.90;;;;;;4991857;28;20048;-65
2023/03/13 04:35:17;;;;;;;;;;;7.50;99.90;;;;;;4998331;28;20048;-66
2023/03/13 04:37:43;;;;;;;0.57;0.30;;;7.50;99.90;;;;;;4997526;28;19917;-65
2023/03/13 04:40:08;;;;;;;;;;;7.50;99.90;;;;;;5000077;28;20034;-66
2023/03/13 04:42:34;;;;;;;1.70;0.40;;;7.60;99.90;;;;;;4999082;28;19986;-66
2023/03/13 04:44:59;;;;;;;;;;;7.60;99.90;;;;;;4992095;28;20468;-66
2023/03/13 04:47:25;;;;;;;2.17;0.40;;;7.60;99.90;;;;;;4993665;28;19979;-64
2023/03/13 04:49:50;;;;;;;;;;;7.70;99.90;;;;;;4990290;28;20564;-66
2023/03/13 04:52:16;;;;;;;1.17;0.50;;;7.70;99.90;;;;;;4996265;28;19922;-67
2023/03/13 04:54:42;;;;;;;2.45;0.70;;;7.80;99.90;;;;;;4990188;28;20042;-66
2023/03/13 04:57:07;;;;;;;7.30;0.88;;;7.80;99.90;;;;;;4996126;28;20056;-65
2023/03/13 04:59:33;;;;;;;;;;;7.80;99.90;;;;;;4992317;28;20064;-66
2023/03/13 05:01:59;;;;;;;6.32;1.20;;;7.90;99.90;;;;;;5007532;28;19921;-66
2023/03/13 05:04:24;;;;;;;5.32;1.10;;;7.80;99.90;;;;;;4994571;28;20045;-66
2023/03/13 05:06:50;;;;;;;;;;;7.90;99.90;;;;;;4993511;28;20538;-66
2023/03/13 05:09:15;;;;;;;4.30;1.02;;;7.90;99.90;;;;;;4993539;28;19922;-67
2023/03/13 05:11:41;;;;;;;;;;;7.90;99.90;;;;;;4994520;28;20034;-64
2023/03/13 05:14:09;;;;;;;6.35;1.58;;;7.90;99.90;;;;;;4995348;28;19933;-66
2023/03/13 05:16:35;;;;;;;1.88;1.13;;;7.90;99.90;;;;;;4994756;28;20142;-66
2023/03/13 05:19:01;;;;;;;3.95;0.98;;;8.00;99.90;;;;;;4996576;28;20858;-66
2023/03/13 05:21:26;;;;;;;2.80;0.93;;;8.00;99.90;;;;;;4997513;28;20072;-65
2023/03/13 05:23:52;;;;;;;3.00;1.17;;;8.00;99.90;;;;;;4994063;28;20636;-65
2023/03/13 05:26:17;;;;;;;3.53;1.40;;;8.10;99.90;;;;;;5009100;28;20426;-67
2023/03/13 05:28:43;;;;;;;4.60;0.88;;;8.10;99.90;;;;;;4993294;28;20488;-66
2023/03/13 05:31:09;;;;;;;;;;;8.20;99.90;;;;;;4997488;28;20042;-66
2023/03/13 05:33:34;;;;;;;8.40;2.15;;;8.20;99.90;;;;;;4993635;28;19925;-66
2023/03/13 05:36:00;;;;;;;1.83;0.90;;;8.30;99.90;;;;;;5000302;28;20755;-67
2023/03/13 05:38:25;;;;;;;;;;;8.30;99.90;;;;;;4989986;28;20044;-66
2023/03/13 05:40:51;;;;;;;1.23;1.08;;;8.30;99.90;;;;;;5000283;28;19924;-64
2023/03/13 05:43:16;;;;;;;;;;;8.30;99.90;;;;;;4989395;28;20173;-66
2023/03/13 05:45:42;;;;;;;3.95;0.60;;;8.30;99.90;;;;;;5000776;28;19948;-66
2023/03/13 05:48:07;;;;;;;;;;;8.30;99.90;;;;;;4989154;28;20043;-66
2023/03/13 05:50:33;;;;;;;1.42;0.70;;;8.40;99.90;;;;;;5002305;28;20040;-67
2023/03/13 05:52:59;;;;;;;;;;;8.40;99.90;;;;;;4993007;28;20046;-66
2023/03/13 05:55:24;;;;;;;1.13;0.50;;;8.50;99.90;;;;;;4998244;28;19922;-66
2023/03/13 05:57:50;;;;;;;;;;;8.50;99.90;;;;;;4993129;28;20038;-64
2023/03/13 06:00:16;;;;;;;1.33;0.63;;;8.50;99.90;;;;;;5000313;28;19917;-67
2023/03/13 06:02:42;;;;;;;2.95;0.50;;;8.60;99.90;;;;;;5005359;28;20050;-65
2023/03/13 06:05:08;;;;;;;2.90;0.57;;;8.70;99.90;;;;;;4995423;28;20476;-67
2023/03/13 06:07:34;;;;;;;0.50;0.40;;;8.70;99.90;;;;;;5057052;28;20077;-66
2023/03/13 06:10:00;;;;;;;;;;;8.70;99.90;;;;;;5062522;28;20122;-64
2023/03/13 06:12:26;;;;;;;2.25;0.75;;;8.70;99.90;;;;;;4995054;28;19986;-67
2023/03/13 06:14:51;;;;;;;;;;;8.80;99.90;;;;;;4995082;28;20042;-65
2023/03/13 06:17:17;;;;;;;2.22;0.70;;;8.80;99.90;;;;;;4991937;28;20386;-66
2023/03/13 06:19:42;;;;;;;;;;;8.90;99.90;;;;;;4999389;28;20038;-67
2023/03/13 06:22:08;;;;;;;2.45;0.90;;;8.90;99.90;;;;;;4996799;28;19917;-67
2023/03/13 06:24:34;;;;;;;2.60;0.95;;;9.00;99.90;;;;;;4994192;28;20401;-66
2023/03/13 06:26:59;;;;;;;;;;;9.00;99.90;;;;;;4995388;28;20043;-66
2023/03/13 06:29:25;;;;;;;1.75;1.00;;;9.00;99.90;;;;;;5064159;28;20397;-65
2023/03/13 06:31:51;;;;;;;3.80;0.85;;;9.10;99.90;;;;;;5009172;28;20549;-64
2023/03/13 06:34:17;;;;;;;1.48;0.80;;;9.10;99.90;;;;;;4993912;28;20045;-65
2023/03/13 06:36:43;;;;;;;2.60;1.48;;;9.10;99.90;;;;;;5000022;28;20050;-66
2023/03/13 06:39:10;;;;;;;2.35;0.88;;;9.20;99.90;;;;;;4994186;28;20034;-66
2023/03/13 06:41:36;;;;;;;2.03;0.80;;;9.20;99.90;;;;;;5001409;28;20809;-67
2023/03/13 06:44:01;;;;;;;;;;;9.20;99.90;;;;;;4992743;28;20125;-65
2023/03/13 06:46:27;;;;;;;1.30;1.08;;;9.20;99.90;;;;;;5069889;28;19921;-66
2023/03/13 06:48:52;;;;;;;1.88;1.30;;;9.30;99.90;;;;;;4990066;28;20052;-66
2023/03/13 06:51:19;;;;;;;;;;;9.30;99.90;;;;;;5001529;28;20040;-66
2023/03/13 06:53:47;;;;;;;2.25;1.33;;;9.30;99.90;;;;;;4992414;28;19933;-65
2023/03/13 06:56:13;;;;;;;3.92;1.20;;;9.30;99.90;;;;;;5069493;28;20046;-64
2023/03/13 06:58:39;;;;;;;3.55;1.70;;;9.30;99.90;;;;;;4992630;28;20057;-65
2023/03/13 07:01:12;;;;;;;1.45;1.02;;;9.30;99.90;;;;;;5004802;28;20042;-65
2023/03/13 07:03:40;;;;;;;1.42;1.10;;;9.40;99.90;;;;;;4992289;28;20073;-67
2023/03/13 07:06:07;;;;;;;1.80;1.08;;;9.40;99.90;;;;;;4989190;28;20158;-66
2023/03/13 07:08:34;;;;;;;1.80;1.15;;;9.40;99.90;;;;;;4989567;28;20050;-67
2023/03/13 07:11:02;;;;;;;2.72;1.38;;;9.50;99.90;;;;;;5001301;28;20042;-67
2023/03/13 07:13:28;;;;;;;2.08;1.10;;;9.50;99.90;;;;;;4992641;28;20046;-66
2023/03/13 07:15:54;;;;;;;3.72;1.17;;;9.50;99.90;;;;;;4989599;28;20056;-67
2023/03/13 07:18:20;;;;;;;;;;;9.50;99.90;;;;;;4993091;28;20038;-66
2023/03/13 07:20:54;;;;;;;1.65;1.20;;;9.60;99.90;;;;;;5013288;28;19989;-66
2023/03/13 07:23:21;;;;;;;3.85;1.35;;;9.60;99.90;;;;;;4994352;28;20037;-65
2023/03/13 07:25:59;;;;;;;1.98;1.17;;;9.60;99.90;;;;;;5000736;28;20046;-64
2023/03/13 07:28:25;;;;;;;1.95;1.15;;;9.60;99.90;;;;;;4991308;28;20048;-67
2023/03/13 07:30:51;;;;;;;2.90;1.23;;;9.70;99.90;;;;;;5002289;28;20120;-65
2023/03/13 07:33:17;;;;;;;;;;;9.70;99.90;;;;;;4991560;28;20105;-66
2023/03/13 07:35:50;;;;;;;2.38;1.10;;;9.80;99.90;;;;;;5004542;28;19921;-65
2023/03/13 07:38:17;;;;;;;3.65;1.30;;;9.80;99.90;;;;;;4990641;28;20103;-65
2023/03/13 07:40:50;;;;;;;1.92;1.40;;;9.80;99.90;;;;;;5003899;28;20042;-66
2023/03/13 07:43:15;;;;;;;2.22;1.50;;;9.80;99.90;;;;;;4994333;28;20048;-69
2023/03/13 07:45:57;;;;;;;;;;;9.80;99.90;;;;;;5003843;28;20400;-67
2023/03/13 07:48:26;;;;;;;2.92;1.33;;;9.90;99.90;;;;;;4988639;28;20318;-65
2023/03/13 07:50:53;;;;;;;3.90;1.40;;;9.90;99.90;;;;;;5000982;28;20050;-67
2023/03/13 07:53:22;;;;;;;2.25;1.48;;;10.00;99.90;;;;;;4989918;28;20495;-66
2023/03/13 07:55:58;;;;;;;4.80;1.33;;;9.90;99.90;;;;;;5003166;28;20038;-66
2023/03/13 07:58:26;;;;;;;2.58;1.30;;;9.90;99.90;;;;;;4989890;28;20417;-67
2023/03/13 08:00:52;;;;;;;3.00;1.48;;;10.00;99.90;;;;;;4997205;28;20042;-67
2023/03/13 08:03:18;;;;;;;;;;;10.00;99.90;;;;;;5006450;28;20034;-68
2023/03/13 08:05:43;;;;;;;2.53;1.33;;;9.90;99.90;;;;;;5004172;28;19973;-65
2023/03/13 08:08:09;;;;;;;3.15;1.88;;;10.00;99.90;;;;;;4990281;28;20105;-67
2023/03/13 08:10:35;;;;;;;2.92;1.50;;;10.00;99.90;;;;;;5004053;28;20563;-66
2023/03/13 08:13:00;;;;;;;;;;;10.00;99.90;;;;;;4992939;28;20087;-67
2023/03/13 08:15:27;;;;;;;3.30;1.60;;;10.10;99.90;;;;;;4997356;28;19921;-67
2023/03/13 08:17:53;;;;;;;2.30;1.50;;;10.20;99.90;;;;;;4996085;28;20078;-67
2023/03/13 08:20:20;;;;;;;6.07;2.60;;;10.30;99.90;;;;;;5003748;28;20082;-66
2023/03/13 08:22:45;;;;;;;3.17;1.85;;;10.40;99.90;;;;;;4998595;28;20038;-66
2023/03/13 08:25:11;;;;;;;;;;;10.50;99.90;;;;;;5000600;28;20054;-66
2023/03/13 08:27:37;;;;;;;2.88;1.75;;;10.50;99.90;;;;;;5000211;28;20622;-67
2023/03/13 08:30:03;;;;;;;;;;;10.60;99.90;;;;;;5001168;28;20042;-66
2023/03/13 08:32:32;;;;;;;4.45;1.67;;;10.80;99.90;;;;;;5011238;28;19918;-67
2023/03/13 08:34:58;;;;;;;9.00;2.25;;;10.90;99.90;;;;;;4998927;28;20591;-66
2023/03/13 08:37:23;;;;;;;;;;;11.00;99.90;;;;;;4996858;28;20034;-66
2023/03/13 08:39:49;;;;;;;3.83;2.10;;;11.00;99.90;;;;;;4991797;28;19922;-67
2023/03/13 08:42:14;;;;;;;3.65;2.22;;;11.10;99.90;;;;;;5001857;28;20038;-67
2023/03/13 08:44:40;;;;;;;;;;;11.10;99.90;;;;;;4998672;28;20197;-67
2023/03/13 08:47:07;;;;;;;6.70;1.85;;;11.20;99.90;;;;;;4997179;28;19930;-67
2023/03/13 08:49:33;;;;;;;4.13;2.08;;;11.30;99.90;;;;;;4996480;28;20095;-65
2023/03/13 08:51:59;;;;;;;;;;;11.40;99.90;;;;;;4998866;28;20035;-66
2023/03/13 08:54:25;;;;;;;5.28;1.92;;;11.40;99.90;;;;;;4993563;28;19921;-66
2023/03/13 08:56:50;;;;;;;4.45;1.88;;;11.40;99.90;;;;;;4998449;28;20046;-67
2023/03/13 08:59:16;;;;;;;;;;;11.40;99.90;;;;;;4994608;28;20511;-67
2023/03/13 09:01:41;;;;;;;9.80;2.20;;;11.50;99.90;;;;;;4993659;28;19961;-66
2023/03/13 09:04:07;;;;;;;4.00;1.60;;;11.50;99.90;;;;;;4992567;28;20061;-67
2023/03/13 09:06:33;;;;;;;;;;;11.60;99.90;;;;;;4996697;28;20046;-67
2023/03/13 09:08:59;;;;;;;4.38;1.73;;;11.60;99.90;;;;;;4993151;28;19937;-68
2023/03/13 09:11:26;;;;;;;6.72;2.05;;;11.50;99.90;;;;;;5001565;28;20039;-67
2023/03/13 09:13:54;;;;;;;3.03;1.80;;;11.40;99.90;;;;;;5075817;28;20039;-65
2023/03/13 09:16:23;;;;;;;7.75;2.95;;;11.30;99.90;;;;;;5003912;28;20042;-65
2023/03/13 09:18:50;;;;;;;5.70;2.10;;;11.30;99.90;;;;;;4993537;28;20817;-67
2023/03/13 09:21:23;;;;;;;5.60;2.33;;;11.20;99.90;;;;;;4987103;28;20046;-67
2023/03/13 09:23:49;;;;;;;5.93;2.08;;;11.20;99.90;;;;;;4994221;28;20043;-67
2023/03/13 09:26:17;;;;;;;7.47;2.88;;;11.10;99.90;;;;;;4997925;28;20054;-67
2023/03/13 09:28:43;;;;;;;7.00;2.00;;;11.10;99.90;;;;;;4994509;28;20046;-68
2023/03/13 09:31:10;;;;;;;;;;;11.10;99.90;;;;;;5009946;28;20049;-67
2023/03/13 09:33:35;;;;;;;;;;;11.10;99.90;;;;;;4999317;28;20312;-67
2023/03/13 09:36:01;;;;;;;7.10;2.83;;;11.10;99.90;;;;;;4995779;28;19937;-67
2023/03/13 09:38:26;;;;;;;;;;;11.20;99.90;;;;;;4995543;28;20112;-66
2023/03/13 09:40:54;;;;;;;7.10;2.03;;;11.20;99.90;;;;;;5000775;28;19982;-67
2023/03/13 09:43:39;;;;;;;6.35;2.92;;;11.40;99.90;;;;;;4989551;28;20049;-66
2023/03/13 09:46:14;;;;;;;6.55;2.65;;;11.50;99.90;;;;;;5000403;28;20042;-66
2023/03/13 09:48:44;;;;;;;6.07;1.85;;;11.70;99.90;;;;;;4991081;28;20505;-66
2023/03/13 09:51:15;;;;;;;6.18;1.80;;;11.80;99.90;;;;;;5001785;28;20120;-67
2023/03/13 09:53:46;;;;;;;7.03;2.25;;;11.80;99.90;;;;;;4987829;28;20115;-67
2023/03/13 09:56:23;;;;;;;3.80;1.95;;;11.70;99.90;;;;;;4994194;28;20129;-67
2023/03/13 09:59:10;;;;;;;3.55;1.75;;;11.50;99.90;;;;;;4989697;28;20050;-67
2023/03/13 10:01:39;;;;;;;3.10;1.60;;;11.50;99.90;;;;;;5005820;28;20451;-66
2023/03/13 10:04:20;;;;;;;6.60;1.85;;;11.60;99.90;;;;;;4988514;28;20854;-67
2023/03/13 10:06:47;;;;;;;5.35;2.15;;;11.80;99.90;;;;;;5060692;28;20216;-66
2023/03/13 10:09:21;;;;;;;4.18;1.55;;;12.00;99.90;;;;;;4990178;28;20370;-68
2023/03/13 10:11:57;;;;;;;6.80;1.67;;;12.20;99.90;;;;;;4993656;28;20595;-66
2023/03/13 10:14:29;;;;;;;7.82;2.25;;;12.20;99.90;;;;;;4991007;28;20045;-66
2023/03/13 10:17:13;;;;;;;3.75;1.63;;;12.10;99.90;;;;;;5061254;28;20100;-67
2023/03/13 10:19:42;;;;;;;5.18;1.58;;;11.90;99.90;;;;;;4992294;28;20038;-68
2023/03/13 10:22:17;;;;;;;3.00;1.50;;;11.90;99.90;;;;;;4995757;28;20047;-66
2023/03/13 10:25:10;;;;;;;7.55;1.80;;;11.80;99.90;;;;;;4993862;28;20053;-67
2023/03/13 10:27:43;;;;;;;5.38;1.98;;;11.70;99.90;;;;;;4993285;28;20054;-67
2023/03/13 10:30:26;;;;;;;3.47;1.48;;;11.70;99.90;;;;;;4996859;28;20046;-65
2023/03/13 10:33:07;;;;;;;4.03;1.30;;;11.80;99.90;;;;;;4992172;28;20735;-67
2023/03/13 10:35:35;;;;;;;5.93;1.80;;;11.90;99.90;;;;;;4999106;28;20493;-67
2023/03/13 10:38:12;;;;;;;4.65;1.60;;;12.00;99.90;;;;;;4989733;28;20058;-67
2023/03/13 10:40:38;;;;;;;4.05;1.58;;;12.20;99.90;;;;;;5001669;28;20519;-67
2023/03/13 10:43:06;;;;;;;;;;;12.10;99.90;;;;;;4992415;28;20117;-66
2023/03/13 10:45:34;;;;;;;5.00;1.42;;;12.00;99.90;;;;;;5000240;28;19921;-66
2023/03/13 10:48:12;;;;;;;4.03;1.25;;;12.00;99.90;;;;;;4992076;28;20124;-65
2023/03/13 10:50:43;;;;;;;3.65;1.35;;;12.20;99.90;;;;;;4995492;28;20052;-65
2023/03/13 10:53:27;;;;;;;4.75;1.48;;;12.20;99.90;;;;;;4991383;28;20422;-67
2023/03/13 10:56:07;;;;;;;4.57;1.27;;;12.30;99.90;;;;;;4998135;28;20053;-65
2023/03/13 10:58:34;;;;;;;3.65;1.50;;;12.30;99.90;;;;;;4993323;28;20113;-65
2023/03/13 11:01:22;;;;;;;2.58;0.93;;;12.20;99.90;;;;;;4998870;28;20038;-64
2023/03/13 11:03:50;;;;;;;6.32;1.20;;;12.10;99.90;;;;;;4991826;28;20046;-65
2023/03/13 11:06:34;;;;;;;4.28;1.10;;;12.20;99.90;;;;;;4993352;28;20061;-65
2023/03/13 11:09:14;;;;;;;3.25;1.05;;;12.20;99.90;;;;;;4990287;28;20111;-66
2023/03/13 11:11:53;;;;;;;1.90;0.68;;;12.20;99.90;;;;;;4994257;28;20047;-65
2023/03/13 11:14:20;;;;;;;2.47;0.85;;;12.10;99.90;;;;;;5056657;28;20034;-66
2023/03/13 11:16:50;;;;;;;1.10;0.70;;;12.10;99.90;;;;;;4993159;28;20084;-65
2023/03/13 11:19:42;;;;;;;0.52;0.43;;;12.10;99.90;;;;;;4996573;28;20518;-65
2023/03/13 11:22:26;;;;;;;1.98;0.70;;;12.10;99.90;;;;;;4995663;28;20047;-67
2023/03/13 11:25:02;;;;;;;1.85;0.65;;;12.10;99.90;;;;;;4994902;28;20045;-64
2023/03/13 11:27:37;;;;;;;0.88;0.60;;;12.20;99.90;;;;;;4995355;28;20192;-67
2023/03/13 11:30:23;;;;;;;1.10;0.80;;;12.30;99.90;;;;;;4998360;28;20042;-64
2023/03/13 11:32:55;;;;;;;2.72;0.65;;;12.30;99.90;;;;;;5003101;28;20042;-66
2023/03/13 11:35:43;;;;;;;0.95;0.63;;;12.40;99.90;;;;;;4991089;28;20042;-66
2023/03/13 11:38:22;;;;;;;9.73;1.50;;;12.40;99.90;;;;;;4991161;28;20118;-65
2023/03/13 11:41:29;;;;;;;0.95;0.60;;;12.40;99.90;;;;;;4999743;28;20037;-64
2023/03/13 11:44:28;;;;;;;2.97;0.60;;;12.50;99.90;;;;;;4992064;28;20454;-65
2023/03/13 11:47:37;;;;;;;1.20;0.60;;;12.50;99.90;;;;;;4995360;28;20058;-64
2023/03/13 11:50:03;;;;;;;2.15;1.00;;;12.60;99.90;;;;;;4997894;28;20428;-65
2023/03/13 11:52:43;;;;;;;;;;;12.60;99.90;;;;;;4997210;28;20046;-65
2023/03/13 11:55:51;;;;;;;0.73;0.60;;;12.80;99.90;;;;;;4990565;28;19973;-66
2023/03/13 11:58:19;;;;;;;3.95;0.95;;;12.80;99.90;;;;;;4990755;28;20073;-66
2023/03/13 12:00:51;;;;;;;2.22;0.88;;;12.70;99.90;;;;;;4998593;28;20519;-64
2023/03/13 12:03:26;;;;;;;2.40;0.90;;;12.60;99.90;;;;;;4989198;28;20038;-65
2023/03/13 12:05:57;;;;;;;1.17;0.60;;;12.60;99.90;;;;;;4995917;28;20041;-64
2023/03/13 12:08:26;;;;;;;2.45;0.57;;;12.70;99.90;;;;;;4988753;28;20125;-65
2023/03/13 12:11:05;;;;;;;1.63;0.80;;;12.80;99.90;;;;;;4998393;28;20038;-64
2023/03/13 12:13:56;;;;;;;1.98;0.70;;;12.80;99.90;;;;;;4992882;28;20150;-66
2023/03/13 12:16:45;;;;;;;1.85;0.70;;;12.70;99.90;;;;;;4995790;28;20118;-64
2023/03/13 12:19:20;;;;;;;1.52;0.60;;;12.60;99.90;;;;;;4998530;28;20063;-65
2023/03/13 12:21:52;;;;;;;1.02;0.45;;;12.60;99.90;;;;;;4999448;28;20042;-66
2023/03/13 12:24:35;;;;;;;0.98;0.60;;;12.50;99.90;;;;;;4994277;28;20135;-66
2023/03/13 12:27:19;;;;;;;1.23;0.65;;;12.60;99.90;;;;;;4998993;28;20042;-66
2023/03/13 12:29:54;;;;;;;0.52;0.40;;;12.40;99.90;;;;;;4998813;28;20085;-66
2023/03/13 12:32:38;;;;;;;1.25;0.60;;;12.40;99.90;;;;;;5000388;28;20038;-64
2023/03/13 12:35:32;;;;;;;0.35;0.30;;;12.40;99.90;;;;;;5000403;28;20046;-66
2023/03/13 12:38:25;;;;;;;1.38;0.55;;;12.40;99.90;;;;;;4991957;28;20153;-66
2023/03/13 12:41:12;;;;;;;1.75;0.73;;;12.40;99.90;;;;;;5002977;28;20114;-65
2023/03/13 12:43:41;;;;;;;2.85;0.68;;;12.40;99.90;;;;;;4993754;28;20034;-65
2023/03/13 12:46:33;;;;;;;1.92;0.80;;;12.40;99.90;;;;;;5000815;28;20058;-66
2023/03/13 12:49:14;;;;;;;1.05;0.52;;;12.40;99.90;;;;;;4987052;28;20056;-65
2023/03/13 12:51:46;;;;;;;1.33;0.70;;;12.40;99.90;;;;;;4999715;28;20751;-65
2023/03/13 12:54:33;;;;;;;1.33;0.85;;;12.40;99.90;;;;;;4997375;28;20056;-66
2023/03/13 12:57:17;;;;;;;0.55;0.50;;;12.30;99.90;;;;;;5065459;28;20046;-65
2023/03/13 12:59:52;;;;;;;1.20;0.70;;;12.40;99.90;;;;;;4997790;28;20053;-65
2023/03/13 13:02:26;;;;;;;1.15;0.70;;;12.50;99.90;;;;;;5043642;28;20677;-64
2023/03/13 13:04:54;;;;;;;1.10;0.70;;;12.50;99.90;;;;;;4992468;28;20070;-65
2023/03/13 13:07:34;;;;;;;1.27;0.70;;;12.60;99.90;;;;;;4994116;28;20678;-65
2023/03/13 13:10:01;;;;;;;3.22;0.88;;;12.60;99.90;;;;;;4998811;28;20037;-65
2023/03/13 13:12:27;;;;;;;0.63;0.50;;;12.70;99.90;;;;;;4995273;28;20046;-64
2023/03/13 13:15:02;;;;;;;;;;;12.80;99.90;;;;;;4998409;28;20038;-66
2023/03/13 13:18:00;;;;;;;1.67;0.63;;;12.80;99.90;;;;;;4996018;28;19917;-65